createdAt,value
2018-12-22T00:02:12.426Z,1.90
2018-12-22T00:04:46.486Z,2.00
2018-12-22T00:07:20.317Z,2.00
2018-12-22T00:09:54.003Z,2.00
2018-12-22T00:12:27.958Z,1.70
2018-12-22T00:15:02.224Z,1.73
2018-12-22T00:17:36.162Z,1.70
2018-12-22T00:20:10.326Z,2.00
2018-12-22T00:22:44.339Z,1.80
2018-12-22T00:25:18.293Z,1.90
2018-12-22T00:27:52.057Z,1.60
2018-12-22T00:30:26.136Z,1.67
2018-12-22T00:33:00.197Z,2.10
2018-12-22T00:35:34.199Z,1.72
2018-12-22T00:38:07.919Z,1.83
2018-12-22T00:40:42.077Z,1.80
2018-12-22T00:43:16.819Z,1.95
2018-12-22T00:45:51.142Z,1.90
2018-12-22T00:48:24.774Z,1.80
2018-12-22T00:50:58.779Z,1.80
2018-12-22T00:53:32.445Z,1.90
2018-12-22T00:56:06.002Z,1.80
2018-12-22T00:58:40.173Z,1.55
2018-12-22T01:01:14.958Z,1.70
2018-12-22T01:03:49.091Z,1.90
2018-12-22T01:06:23.194Z,1.85
2018-12-22T01:08:56.895Z,1.80
2018-12-22T01:11:30.598Z,1.70
2018-12-22T01:14:04.504Z,1.70
2018-12-22T01:16:38.947Z,1.60
2018-12-22T01:19:12.946Z,1.70
2018-12-22T01:21:46.534Z,1.80
2018-12-22T01:24:20.143Z,1.80
2018-12-22T01:26:53.950Z,2.13
2018-12-22T01:29:27.927Z,1.60
2018-12-22T01:32:01.786Z,1.90
2018-12-22T01:34:35.357Z,1.70
2018-12-22T01:37:09.461Z,1.75
2018-12-22T01:39:45.003Z,1.80
2018-12-22T01:42:18.523Z,1.75
2018-12-22T01:44:52.194Z,1.73
2018-12-22T01:47:25.571Z,1.67
2018-12-22T01:49:59.630Z,2.07
2018-12-22T01:52:33.934Z,1.90
2018-12-22T01:55:07.937Z,1.70
2018-12-22T01:57:42.037Z,1.82
2018-12-22T02:00:16.022Z,1.87
2018-12-22T02:02:49.960Z,1.80
2018-12-22T02:05:23.865Z,1.90
2018-12-22T02:07:58.054Z,1.98
2018-12-22T02:10:32.006Z,1.70
2018-12-22T02:13:05.977Z,2.10
2018-12-22T02:15:39.686Z,2.00
2018-12-22T02:18:13.369Z,1.93
2018-12-22T02:20:47.295Z,1.72
2018-12-22T02:23:20.959Z,1.83
2018-12-22T02:25:55.050Z,1.85
2018-12-22T02:28:29.020Z,1.90
2018-12-22T02:31:03.202Z,1.90
2018-12-22T02:33:37.107Z,1.73
2018-12-22T02:36:10.695Z,1.98
2018-12-22T02:38:44.541Z,1.80
2018-12-22T02:41:18.218Z,1.70
2018-12-22T02:43:52.551Z,2.00
2018-12-22T02:46:27.210Z,2.00
2018-12-22T02:49:01.186Z,1.90
2018-12-22T02:51:34.990Z,1.90
2018-12-22T02:54:08.941Z,1.80
2018-12-22T02:56:43.019Z,1.65
2018-12-22T02:59:16.702Z,1.90
2018-12-22T03:01:50.592Z,1.90
2018-12-22T03:04:24.578Z,1.80
2018-12-22T03:06:58.215Z,1.80
2018-12-22T03:09:32.180Z,1.70
2018-12-22T03:12:05.975Z,1.90
2018-12-22T03:14:39.554Z,1.60
2018-12-22T03:17:13.781Z,1.92
2018-12-22T03:19:48.024Z,1.75
2018-12-22T03:22:21.978Z,1.77
2018-12-22T03:24:55.532Z,2.03
2018-12-22T03:27:29.371Z,1.93
2018-12-22T03:30:03.259Z,1.90
2018-12-22T03:32:37.854Z,1.83
2018-12-22T03:35:11.652Z,1.80
2018-12-22T03:37:45.589Z,1.80
2018-12-22T03:40:19.392Z,1.60
2018-12-22T03:42:53.126Z,1.80
2018-12-22T03:45:26.502Z,1.80
2018-12-22T03:48:00.418Z,1.70
2018-12-22T03:50:34.240Z,1.60
2018-12-22T03:55:40.119Z,1.70
2018-12-22T03:58:13.972Z,1.70
2018-12-22T04:00:47.562Z,1.70
2018-12-22T04:03:21.302Z,1.67
2018-12-22T04:05:55.306Z,1.90
2018-12-22T04:08:29.050Z,1.90
2018-12-22T04:11:03.020Z,1.60
2018-12-22T04:13:36.575Z,1.60
2018-12-22T04:16:10.259Z,1.70
2018-12-22T04:18:44.067Z,1.70
2018-12-22T04:21:18.285Z,1.63
2018-12-22T04:23:52.250Z,1.70
2018-12-22T04:26:26.051Z,1.70
2018-12-22T04:28:59.674Z,1.80
2018-12-22T04:31:33.584Z,1.80
2018-12-22T04:34:07.528Z,1.60
2018-12-22T04:36:41.453Z,1.70
2018-12-22T04:39:15.294Z,1.70
2018-12-22T04:41:49.192Z,1.60
2018-12-22T04:44:22.985Z,1.60
2018-12-22T04:46:57.044Z,1.60
2018-12-22T04:49:31.517Z,1.70
2018-12-22T04:52:05.173Z,1.60
2018-12-22T04:54:39.071Z,1.60
2018-12-22T04:57:12.627Z,1.50
2018-12-22T04:59:46.526Z,1.60
2018-12-22T05:02:20.133Z,1.60
2018-12-22T05:04:54.009Z,1.53
2018-12-22T05:07:27.622Z,1.70
2018-12-22T05:10:01.526Z,1.60
2018-12-22T05:12:35.305Z,1.80
2018-12-22T05:15:10.027Z,1.50
2018-12-22T05:17:44.557Z,1.70
2018-12-22T05:20:18.420Z,1.70
2018-12-22T05:22:52.292Z,1.50
2018-12-22T05:25:26.434Z,1.50
2018-12-22T05:28:00.962Z,1.47
2018-12-22T05:30:34.606Z,1.37
2018-12-22T05:33:08.583Z,1.50
2018-12-22T05:35:42.671Z,1.57
2018-12-22T05:38:16.533Z,1.53
2018-12-22T05:40:50.602Z,1.40
2018-12-22T05:43:24.589Z,1.70
2018-12-22T05:45:58.090Z,1.40
2018-12-22T05:48:31.888Z,1.57
2018-12-22T05:51:05.729Z,1.70
2018-12-22T05:55:37.570Z,1.50
2018-12-22T05:58:11.454Z,1.40
2018-12-22T06:00:45.251Z,1.53
2018-12-22T06:03:19.817Z,1.33
2018-12-22T06:05:53.989Z,1.50
2018-12-22T06:08:27.545Z,1.43
2018-12-22T06:11:01.178Z,1.40
2018-12-22T06:13:35.450Z,1.40
2018-12-22T06:16:09.224Z,1.47
2018-12-22T06:18:43.119Z,1.50
2018-12-22T06:21:16.604Z,1.30
2018-12-22T06:23:50.562Z,1.65
2018-12-22T06:26:24.941Z,1.50
2018-12-22T06:28:58.761Z,1.32
2018-12-22T06:31:32.763Z,1.10
2018-12-22T06:34:06.644Z,1.30
2018-12-22T06:36:40.899Z,1.50
2018-12-22T06:39:14.606Z,1.27
2018-12-22T06:41:49.267Z,1.40
2018-12-22T06:44:23.166Z,1.60
2018-12-22T06:46:56.640Z,1.50
2018-12-22T06:49:30.778Z,1.10
2018-12-22T06:52:04.681Z,1.30
2018-12-22T06:54:38.563Z,1.30
2018-12-22T06:57:12.150Z,1.30
2018-12-22T06:59:46.031Z,1.10
2018-12-22T07:02:20.279Z,1.25
2018-12-22T07:04:54.461Z,1.10
2018-12-22T07:07:28.106Z,1.23
2018-12-22T07:10:01.855Z,1.15
2018-12-22T07:12:35.613Z,1.40
2018-12-22T07:15:09.570Z,1.13
2018-12-22T07:17:43.611Z,1.60
2018-12-22T07:20:17.456Z,1.00
2018-12-22T07:22:51.316Z,1.10
2018-12-22T07:25:25.181Z,1.20
2018-12-22T07:27:59.314Z,1.00
2018-12-22T07:30:33.683Z,1.20
2018-12-22T07:33:07.341Z,1.20
2018-12-22T07:35:41.305Z,1.30
2018-12-22T07:38:15.313Z,1.13
2018-12-22T07:40:49.481Z,1.13
2018-12-22T07:43:23.187Z,0.97
2018-12-22T07:45:57.273Z,1.17
2018-12-22T07:48:31.668Z,1.10
2018-12-22T07:51:05.539Z,1.07
2018-12-22T07:53:39.676Z,1.10
2018-12-22T07:56:13.840Z,1.10
2018-12-22T07:58:47.472Z,1.10
2018-12-22T08:01:21.356Z,1.10
2018-12-22T08:03:55.263Z,0.90
2018-12-22T08:06:29.057Z,1.00
2018-12-22T08:09:03.125Z,1.17
2018-12-22T08:11:37.097Z,1.12
2018-12-22T08:14:11.775Z,1.23
2018-12-22T08:16:45.578Z,1.20
2018-12-22T08:19:19.603Z,1.13
2018-12-22T08:21:53.733Z,1.00
2018-12-22T08:24:27.582Z,1.00
2018-12-22T08:27:01.585Z,1.20
2018-12-22T08:29:35.473Z,1.10
2018-12-22T08:32:09.584Z,1.20
2018-12-22T08:34:43.645Z,1.32
2018-12-22T08:37:17.514Z,1.25
2018-12-22T08:39:51.582Z,1.20
2018-12-22T08:42:25.587Z,1.07
2018-12-22T08:44:59.275Z,1.10
2018-12-22T08:47:33.493Z,1.20
2018-12-22T08:50:09.380Z,1.30
2018-12-22T08:52:43.617Z,0.95
2018-12-22T08:55:17.379Z,0.97
2018-12-22T08:57:51.489Z,1.10
2018-12-22T09:00:25.163Z,1.17
2018-12-22T09:02:58.950Z,1.20
2018-12-22T09:05:32.806Z,0.83
2018-12-22T09:08:07.216Z,0.80
2018-12-22T09:10:41.175Z,1.12
2018-12-22T09:13:20.807Z,1.40
2018-12-22T09:15:51.125Z,1.20
2018-12-22T09:18:25.297Z,1.00
2018-12-22T09:20:59.382Z,1.13
2018-12-22T09:23:33.375Z,0.90
2018-12-22T09:26:08.550Z,1.10
2018-12-22T09:28:42.646Z,0.97
2018-12-22T09:31:16.602Z,1.07
2018-12-22T09:33:50.599Z,1.10
2018-12-22T09:36:24.081Z,0.98
2018-12-22T09:38:58.161Z,1.02
2018-12-22T09:41:32.095Z,1.00
2018-12-22T09:44:06.172Z,0.75
2018-12-22T09:46:40.115Z,1.00
2018-12-22T09:51:45.814Z,0.97
2018-12-22T09:54:20.300Z,1.00
2018-12-22T09:56:54.700Z,1.00
2018-12-22T09:59:28.388Z,0.90
2018-12-22T10:02:02.390Z,1.20
2018-12-22T10:04:36.254Z,0.95
2018-12-22T10:07:10.155Z,1.05
2018-12-22T10:09:43.911Z,0.90
2018-12-22T10:12:18.282Z,1.07
2018-12-22T10:14:52.375Z,1.20
2018-12-22T10:17:26.095Z,0.90
2018-12-22T10:19:59.554Z,0.90
2018-12-22T10:22:33.614Z,0.90
2018-12-22T10:25:08.138Z,0.70
2018-12-22T10:27:42.222Z,0.93
2018-12-22T10:31:40.074Z,0.90
2018-12-22T10:34:14.138Z,1.10
2018-12-22T10:36:48.226Z,1.03
2018-12-22T10:39:21.905Z,0.97
2018-12-22T10:41:55.723Z,0.90
2018-12-22T10:44:30.285Z,1.02
2018-12-22T10:47:03.970Z,0.85
2018-12-22T10:49:38.118Z,0.93
2018-12-22T10:52:11.554Z,1.00
2018-12-22T10:54:45.624Z,0.80
2018-12-22T10:57:19.662Z,1.10
2018-12-22T10:59:53.695Z,1.00
2018-12-22T11:02:27.724Z,1.17
2018-12-22T11:05:01.506Z,1.05
2018-12-22T11:07:35.185Z,1.13
2018-12-22T11:10:10.107Z,1.00
2018-12-22T11:12:44.186Z,0.90
2018-12-22T11:15:18.128Z,0.90
2018-12-22T11:17:51.629Z,1.10
2018-12-22T11:20:25.393Z,0.90
2018-12-22T11:22:59.429Z,0.90
2018-12-22T11:25:33.370Z,1.17
2018-12-22T11:28:07.407Z,0.97
2018-12-22T11:30:43.238Z,0.80
2018-12-22T11:33:17.456Z,0.88
2018-12-22T11:35:51.406Z,0.90
2018-12-22T11:38:25.653Z,0.80
2018-12-22T11:40:59.354Z,0.90
2018-12-22T11:43:33.635Z,0.70
2018-12-22T11:46:07.174Z,1.03
2018-12-22T11:49:46.005Z,0.80
2018-12-22T11:52:20.130Z,1.10
2018-12-22T11:54:54.158Z,0.97
2018-12-22T11:57:28.153Z,1.07
2018-12-22T12:00:01.940Z,0.90
2018-12-22T12:02:35.851Z,0.80
2018-12-22T12:05:10.745Z,0.80
2018-12-22T12:07:44.746Z,0.72
2018-12-22T12:10:18.693Z,0.70
2018-12-22T12:12:53.200Z,0.80
2018-12-22T12:15:29.320Z,0.90
2018-12-22T12:19:18.340Z,0.90
2018-12-22T12:21:52.250Z,0.80
2018-12-22T12:24:26.131Z,0.80
2018-12-22T12:27:00.417Z,0.80
2018-12-22T12:29:34.349Z,0.88
2018-12-22T12:32:08.285Z,1.10
2018-12-22T12:34:41.838Z,1.07
2018-12-22T12:37:15.531Z,0.80
2018-12-22T12:39:49.286Z,0.70
2018-12-22T12:42:23.179Z,0.70
2018-12-22T12:44:57.346Z,0.75
2018-12-22T12:47:31.403Z,0.80
2018-12-22T12:50:05.287Z,0.80
2018-12-22T12:52:39.382Z,0.70
2018-12-22T12:55:14.266Z,0.80
2018-12-22T12:57:48.330Z,0.80
2018-12-22T13:00:22.714Z,0.60
2018-12-22T13:02:56.390Z,0.87
2018-12-22T13:05:30.626Z,0.90
2018-12-22T13:08:04.202Z,1.17
2018-12-22T13:10:38.328Z,0.80
2018-12-22T13:13:28.661Z,0.90
2018-12-22T13:16:02.522Z,0.80
2018-12-22T13:18:36.196Z,0.60
2018-12-22T13:21:11.189Z,0.87
2018-12-22T13:23:45.166Z,0.80
2018-12-22T13:26:19.182Z,0.90
2018-12-22T13:28:53.194Z,0.80
2018-12-22T13:31:29.942Z,0.70
2018-12-22T13:34:04.209Z,0.80
2018-12-22T13:36:38.202Z,0.77
2018-12-22T13:39:18.338Z,0.80
2018-12-22T13:41:52.162Z,0.90
2018-12-22T13:44:26.374Z,0.70
2018-12-22T13:47:00.144Z,0.70
2018-12-22T13:49:34.414Z,0.80
2018-12-22T13:52:08.213Z,0.80
2018-12-22T13:54:42.189Z,0.70
2018-12-22T13:57:16.298Z,0.80
2018-12-22T13:59:50.287Z,0.88
2018-12-22T14:02:23.839Z,0.60
2018-12-22T14:04:58.208Z,0.78
2018-12-22T14:10:04.306Z,0.80
2018-12-22T14:12:38.144Z,0.80
2018-12-22T14:15:15.022Z,0.80
2018-12-22T14:17:58.774Z,0.72
2018-12-22T14:20:34.212Z,0.80
2018-12-22T14:23:08.154Z,0.63
2018-12-22T14:25:42.205Z,0.60
2018-12-22T14:28:16.210Z,0.90
2018-12-22T14:30:49.895Z,0.60
2018-12-22T14:33:23.741Z,0.70
2018-12-22T14:36:02.160Z,0.90
2018-12-22T14:38:35.729Z,0.80
2018-12-22T14:41:09.577Z,0.70
2018-12-22T14:43:43.690Z,0.70
2018-12-22T14:46:17.855Z,0.70
2018-12-22T14:48:51.657Z,0.90
2018-12-22T14:51:25.414Z,0.82
2018-12-22T14:53:59.505Z,0.80
2018-12-22T14:56:45.723Z,0.93
2018-12-22T14:59:21.456Z,0.80
2018-12-22T15:01:57.763Z,0.70
2018-12-22T15:04:33.828Z,0.80
2018-12-22T15:07:08.693Z,0.80
2018-12-22T15:09:42.463Z,0.80
2018-12-22T15:12:16.323Z,0.80
2018-12-22T15:14:50.394Z,0.80
2018-12-22T15:17:24.238Z,0.68
2018-12-22T15:19:58.700Z,0.70
2018-12-22T15:22:32.269Z,0.63
2018-12-22T15:25:06.319Z,0.80
2018-12-22T15:27:40.251Z,1.10
2018-12-22T15:30:16.157Z,0.80
2018-12-22T15:35:24.198Z,0.70
2018-12-22T15:37:58.701Z,0.60
2018-12-22T15:40:33.253Z,0.80
2018-12-22T15:43:07.038Z,0.80
2018-12-22T15:45:40.767Z,0.65
2018-12-22T15:48:14.595Z,0.80
2018-12-22T15:50:49.594Z,0.80
2018-12-22T15:53:23.226Z,0.90
2018-12-22T15:55:59.330Z,0.70
2018-12-22T15:58:33.431Z,0.80
2018-12-22T16:01:07.302Z,0.75
2018-12-22T16:03:41.359Z,0.62
2018-12-22T16:06:15.397Z,0.70
2018-12-22T16:08:49.290Z,0.60
2018-12-22T16:11:23.190Z,0.70
2018-12-22T16:13:56.795Z,0.70
2018-12-22T16:16:30.922Z,0.80
2018-12-22T16:19:04.947Z,0.60
2018-12-22T16:21:39.049Z,0.70
2018-12-22T16:24:13.262Z,0.60
2018-12-22T16:26:47.610Z,0.70
2018-12-22T16:29:29.075Z,0.72
2018-12-22T16:32:02.770Z,0.77
2018-12-22T16:34:36.602Z,1.00
2018-12-22T16:37:10.610Z,0.70
2018-12-22T16:39:44.239Z,0.70
2018-12-22T16:42:18.221Z,0.70
2018-12-22T16:44:52.270Z,0.70
2018-12-22T16:47:25.912Z,0.70
2018-12-22T16:49:59.308Z,0.80
2018-12-22T16:52:33.096Z,0.70
2018-12-22T16:55:06.725Z,0.80
2018-12-22T16:57:40.783Z,0.67
2018-12-22T17:00:21.427Z,0.90
2018-12-22T17:03:10.413Z,0.80
2018-12-22T17:05:38.725Z,0.80
2018-12-22T17:08:12.269Z,0.82
2018-12-22T17:10:49.287Z,0.60
2018-12-22T17:13:24.581Z,0.90
2018-12-22T17:16:00.731Z,0.60
2018-12-22T17:18:35.085Z,0.70
2018-12-22T17:21:14.328Z,0.90
2018-12-22T17:23:57.734Z,0.80
2018-12-22T17:26:33.626Z,0.85
2018-12-22T17:29:07.434Z,0.65
2018-12-22T17:31:42.216Z,0.60
2018-12-22T17:34:16.218Z,0.70
2018-12-22T17:36:49.768Z,0.70
2018-12-22T17:39:23.795Z,1.50
2018-12-22T17:41:57.463Z,0.80
2018-12-22T17:44:31.286Z,0.70
2018-12-22T17:47:05.271Z,0.70
2018-12-22T17:49:39.478Z,0.70
2018-12-22T17:52:13.753Z,0.90
2018-12-22T17:54:47.445Z,0.80
2018-12-22T17:57:21.470Z,0.90
2018-12-22T17:59:55.638Z,0.90
2018-12-22T18:02:29.243Z,1.20
2018-12-22T18:05:03.465Z,0.80
2018-12-22T18:07:37.384Z,0.85
2018-12-22T18:10:12.373Z,0.98
2018-12-22T18:12:46.314Z,0.60
2018-12-22T18:17:52.859Z,1.00
2018-12-22T18:20:26.774Z,0.70
2018-12-22T18:23:00.368Z,0.70
2018-12-22T18:25:33.854Z,0.90
2018-12-22T18:28:07.834Z,0.73
2018-12-22T18:30:41.821Z,0.85
2018-12-22T18:33:15.478Z,0.70
2018-12-22T18:35:49.415Z,0.90
2018-12-22T18:38:23.711Z,0.80
2018-12-22T18:40:57.966Z,0.65
2018-12-22T18:43:31.866Z,0.80
2018-12-22T18:46:05.647Z,0.50
2018-12-22T18:48:39.481Z,0.80
2018-12-22T18:51:13.378Z,0.70
2018-12-22T18:53:47.910Z,0.72
2018-12-22T18:56:21.561Z,0.80
2018-12-22T18:58:56.235Z,1.00
2018-12-22T19:01:30.260Z,0.68
2018-12-22T19:04:04.316Z,0.70
2018-12-22T19:09:12.826Z,1.65
2018-12-22T19:11:46.772Z,0.50
2018-12-22T19:14:20.321Z,0.70
2018-12-22T19:16:54.289Z,0.73
2018-12-22T19:19:28.238Z,0.77
2018-12-22T19:22:02.235Z,1.10
2018-12-22T19:24:35.655Z,0.63
2018-12-22T19:27:09.728Z,0.60
2018-12-22T19:29:43.786Z,0.72
2018-12-22T19:32:18.385Z,0.80
2018-12-22T19:34:51.905Z,0.50
2018-12-22T19:37:25.538Z,0.73
2018-12-22T19:39:59.507Z,0.80
2018-12-22T19:42:33.209Z,0.80
2018-12-22T19:45:06.886Z,0.70
2018-12-22T19:47:40.566Z,0.73
2018-12-22T19:50:14.482Z,0.90
2018-12-22T19:52:48.269Z,0.97
2018-12-22T19:55:22.300Z,0.80
2018-12-22T20:00:27.777Z,0.60
2018-12-22T20:03:01.586Z,0.80
2018-12-22T20:05:35.680Z,0.80
2018-12-22T20:08:09.486Z,0.70
2018-12-22T20:10:45.029Z,0.70
2018-12-22T20:13:19.409Z,0.70
2018-12-22T20:15:53.314Z,0.80
2018-12-22T20:18:26.850Z,0.87
2018-12-22T20:21:00.834Z,0.60
2018-12-22T20:23:34.675Z,0.60
2018-12-22T20:26:08.508Z,0.80
2018-12-22T20:28:42.250Z,0.70
2018-12-22T20:31:16.310Z,0.70
2018-12-22T20:33:50.293Z,0.70
2018-12-22T20:36:24.351Z,0.77
2018-12-22T20:38:58.280Z,0.93
2018-12-22T20:41:32.085Z,1.00
2018-12-22T20:44:05.829Z,0.70
2018-12-22T20:46:39.838Z,0.60
2018-12-22T20:49:13.478Z,0.70
2018-12-22T20:51:47.523Z,0.70
2018-12-22T20:54:21.538Z,0.80
2018-12-22T20:56:55.398Z,0.60
2018-12-22T20:59:29.961Z,0.68
2018-12-22T21:02:03.688Z,0.70
2018-12-22T21:04:37.792Z,0.80
2018-12-22T21:07:11.521Z,0.70
2018-12-22T21:09:45.343Z,0.80
2018-12-22T21:12:19.455Z,0.70
2018-12-22T21:14:53.685Z,0.60
2018-12-22T21:17:27.522Z,0.70
2018-12-22T21:20:01.374Z,0.70
2018-12-22T21:22:35.517Z,0.57
2018-12-22T21:25:09.803Z,0.70
2018-12-22T21:27:43.506Z,0.80
2018-12-22T21:30:17.327Z,0.50
2018-12-22T21:32:51.178Z,0.80
2018-12-22T21:35:24.806Z,0.60
2018-12-22T21:37:59.078Z,0.70
2018-12-22T21:40:32.927Z,0.60
2018-12-22T21:43:06.906Z,0.70
2018-12-22T21:45:40.871Z,0.50
2018-12-22T21:48:14.425Z,0.67
2018-12-22T21:50:48.286Z,0.62
2018-12-22T21:53:22.298Z,0.70
2018-12-22T21:55:56.288Z,0.70
2018-12-22T21:58:30.174Z,0.60
2018-12-22T22:01:04.276Z,0.78
2018-12-22T22:03:38.348Z,0.93
2018-12-22T22:06:11.898Z,0.80
2018-12-22T22:08:45.715Z,0.70
2018-12-22T22:11:19.449Z,0.77
2018-12-22T22:13:53.351Z,0.73
2018-12-22T22:16:27.600Z,0.68
2018-12-22T22:19:01.621Z,0.70
2018-12-22T22:21:35.710Z,0.80
2018-12-22T22:24:09.559Z,0.70
2018-12-22T22:26:43.425Z,0.70
2018-12-22T22:29:17.316Z,0.70
2018-12-22T22:31:51.278Z,0.65
2018-12-22T22:34:25.448Z,0.62
2018-12-22T22:36:59.546Z,0.70
2018-12-22T22:39:33.550Z,0.70
2018-12-22T22:42:07.463Z,0.70
2018-12-22T22:44:41.142Z,0.80
2018-12-22T22:47:15.157Z,0.78
2018-12-22T22:49:48.711Z,0.60
2018-12-22T22:52:23.043Z,0.60
2018-12-22T22:54:56.725Z,0.63
2018-12-22T22:57:30.713Z,0.68
2018-12-22T23:00:04.555Z,0.72
2018-12-22T23:02:38.589Z,0.63
2018-12-22T23:05:12.590Z,0.60
2018-12-22T23:07:47.159Z,0.80
2018-12-22T23:10:21.030Z,0.63
2018-12-22T23:12:54.467Z,0.70
2018-12-22T23:15:28.371Z,0.70
2018-12-22T23:18:02.558Z,0.87
2018-12-22T23:20:36.711Z,0.70
2018-12-22T23:23:10.426Z,0.62
2018-12-22T23:25:44.324Z,0.70
2018-12-22T23:28:18.888Z,0.70
2018-12-22T23:30:52.903Z,0.83
2018-12-22T23:33:26.630Z,0.85
2018-12-22T23:36:00.394Z,0.70
2018-12-22T23:38:34.386Z,0.90
2018-12-22T23:41:08.320Z,0.77
2018-12-22T23:43:42.335Z,0.80
2018-12-22T23:46:16.326Z,1.20
2018-12-22T23:48:49.897Z,0.80
2018-12-22T23:51:23.742Z,0.70
2018-12-22T23:53:57.847Z,0.95
2018-12-22T23:56:31.883Z,0.80
2018-12-22T23:59:06.727Z,0.80
